Wan Hai 501 — S6AS7 — position and weather

sailwx.info

Track history (hours):
 
Tides and Currents Weather Stations Pressure Air Temp Water Temp Dewpoint Dewpoint Depression Visibility Wind Speed Wind Dir Waves Ship Positions

Wan Hai 501

Last reported at 2016-Jul-24 12:07 UTC. Time now 2016-Jul-27 05:49 UTC.
Position N 01°56' E 102°17'.

Length 269 m; draft 11 m.

Type: Cargo ship. MMSI: 563382000.

Date/timePositionNaut miles runAvg speedWind from/ knotsBaromVisibWave heightAir tempDewpointWater temp
2016-Jul-24 12:07N 01°56' E 102°17'915.7
2016-Jul-24 11:33N 01°52' E 102°25'1616.4
2016-Jul-24 10:33N 01°45' E 102°39'1816.3
2016-Jul-24 09:26N 01°36' E 102°55'5614.2
2016-Jul-24 05:30N 01°09' E 103°44'1010.1
2016-Jul-24 04:33N 01°14' E 103°52'2 1.7
2016-Jul-24 03:31N 01°16' E 103°50'0 0.0
2016-Jul-24 02:28N 01°16' E 103°50'0 0.0
2016-Jul-24 01:28N 01°16' E 103°50'0 0.0
2016-Jul-24 00:31N 01°16' E 103°50'0 0.0
2016-Jul-23 23:28N 01°16' E 103°50'0 0.0
2016-Jul-23 22:28N 01°16' E 103°50'0 0.0
2016-Jul-23 21:31N 01°16' E 103°50'0 0.0
2016-Jul-23 20:31N 01°16' E 103°50'0 0.0
2016-Jul-23 19:31N 01°16' E 103°50'0 0.0
2016-Jul-23 18:31N 01°16' E 103°50'0 0.0
2016-Jul-23 17:31N 01°16' E 103°50'0 0.0
2016-Jul-23 16:31N 01°16' E 103°50'0 0.0
2016-Jul-23 15:28N 01°16' E 103°50'0 0.0
2016-Jul-23 14:31N 01°16' E 103°50'0 0.0
2016-Jul-23 13:31N 01°16' E 103°50'0 0.0
2016-Jul-23 12:31N 01°16' E 103°50'3 3.1
2016-Jul-23 11:33N 01°14' E 103°53'6 6.0
2016-Jul-23 10:33N 01°15' E 103°59'1712.4
2016-Jul-23 09:13N 01°18' E 104°15'  
2016-Jul-20 07:33N 22°20' E 114°07'1 0.1
2016-Jul-20 01:30N 22°20' E 114°08'0 0.0
2016-Jul-19 17:23N 22°20' E 114°08'16713.0
2016-Jul-19 04:33N 23°02' E 117°03'8814.5
2016-Jul-18 22:29N 23°52' E 118°21'1414.6
2016-Jul-18 21:31N 24°01' E 118°33'2914.7
2016-Jul-18 19:33N 24°18' E 118°59'  
2016-Jul-15 11:08N 35°01' E 139°39'1016.6
2016-Jul-15 10:34N 35°10' E 139°45'1211.5
2016-Jul-15 09:33N 35°21' E 139°42'1414.0
2016-Jul-15 08:33N 35°34' E 139°49'3 3.0
2016-Jul-15 07:32N 35°36' E 139°46'0 0.0
2016-Jul-15 06:32N 35°36' E 139°46'0 0.0
2016-Jul-15 05:32N 35°36' E 139°46'0 0.0
2016-Jul-15 04:32N 35°36' E 139°46'0 0.0
2016-Jul-15 03:32N 35°36' E 139°46'0 0.0
2016-Jul-15 02:32N 35°36' E 139°46'0 0.0
2016-Jul-15 01:32N 35°36' E 139°46'0 0.0
2016-Jul-15 00:32N 35°36' E 139°46'0 0.0
2016-Jul-14 23:32N 35°36' E 139°46'0 0.0
2016-Jul-14 22:29N 35°36' E 139°46'0 0.0
2016-Jul-14 21:32N 35°36' E 139°46'0 0.0
2016-Jul-14 20:32N 35°36' E 139°46'0 0.0
2016-Jul-14 19:32N 35°36' E 139°46'0 0.0
2016-Jul-14 18:32N 35°36' E 139°46'0 0.0
2016-Jul-14 17:32N 35°36' E 139°46'0 0.0
2016-Jul-14 16:32N 35°36' E 139°46'0 0.0
2016-Jul-14 15:32N 35°36' E 139°46'0 0.0
2016-Jul-14 14:32N 35°36' E 139°46'0 0.0
2016-Jul-14 13:32N 35°36' E 139°46'0 0.0
2016-Jul-14 12:32N 35°36' E 139°46'  
Track history (hours):
 
Tides and Currents Weather Stations Pressure Air Temp Water Temp Dewpoint Dewpoint Depression Visibility Wind Speed Wind Dir Waves Ship Positions

Wan Hai 501

Last reported at 2016-Jul-24 12:07 UTC. Time now 2016-Jul-27 05:49 UTC.
Position N 01°56' E 102°17'.

Length 269 m; draft 11 m.

Type: Cargo ship. MMSI: 563382000.

Date/timePositionNaut miles runAvg speedWind from/ knotsBaromVisibWave heightAir tempDewpointWater temp
2016-Jul-24 12:07N 01°56' E 102°17'915.7
2016-Jul-24 11:33N 01°52' E 102°25'1616.4
2016-Jul-24 10:33N 01°45' E 102°39'1816.3
2016-Jul-24 09:26N 01°36' E 102°55'5614.2
2016-Jul-24 05:30N 01°09' E 103°44'1010.1
2016-Jul-24 04:33N 01°14' E 103°52'2 1.7
2016-Jul-24 03:31N 01°16' E 103°50'0 0.0
2016-Jul-24 02:28N 01°16' E 103°50'0 0.0
2016-Jul-24 01:28N 01°16' E 103°50'0 0.0
2016-Jul-24 00:31N 01°16' E 103°50'0 0.0
2016-Jul-23 23:28N 01°16' E 103°50'0 0.0
2016-Jul-23 22:28N 01°16' E 103°50'0 0.0
2016-Jul-23 21:31N 01°16' E 103°50'0 0.0
2016-Jul-23 20:31N 01°16' E 103°50'0 0.0
2016-Jul-23 19:31N 01°16' E 103°50'0 0.0
2016-Jul-23 18:31N 01°16' E 103°50'0 0.0
2016-Jul-23 17:31N 01°16' E 103°50'0 0.0
2016-Jul-23 16:31N 01°16' E 103°50'0 0.0
2016-Jul-23 15:28N 01°16' E 103°50'0 0.0
2016-Jul-23 14:31N 01°16' E 103°50'0 0.0
2016-Jul-23 13:31N 01°16' E 103°50'0 0.0
2016-Jul-23 12:31N 01°16' E 103°50'3 3.1
2016-Jul-23 11:33N 01°14' E 103°53'6 6.0
2016-Jul-23 10:33N 01°15' E 103°59'1712.4
2016-Jul-23 09:13N 01°18' E 104°15'  
2016-Jul-20 07:33N 22°20' E 114°07'1 0.1
2016-Jul-20 01:30N 22°20' E 114°08'0 0.0
2016-Jul-19 17:23N 22°20' E 114°08'16713.0
2016-Jul-19 04:33N 23°02' E 117°03'8814.5
2016-Jul-18 22:29N 23°52' E 118°21'1414.6
2016-Jul-18 21:31N 24°01' E 118°33'2914.7
2016-Jul-18 19:33N 24°18' E 118°59'  
2016-Jul-15 11:08N 35°01' E 139°39'1016.6
2016-Jul-15 10:34N 35°10' E 139°45'1211.5
2016-Jul-15 09:33N 35°21' E 139°42'1414.0
2016-Jul-15 08:33N 35°34' E 139°49'3 3.0
2016-Jul-15 07:32N 35°36' E 139°46'0 0.0
2016-Jul-15 06:32N 35°36' E 139°46'0 0.0
2016-Jul-15 05:32N 35°36' E 139°46'0 0.0
2016-Jul-15 04:32N 35°36' E 139°46'0 0.0
2016-Jul-15 03:32N 35°36' E 139°46'0 0.0
2016-Jul-15 02:32N 35°36' E 139°46'0 0.0
2016-Jul-15 01:32N 35°36' E 139°46'0 0.0
2016-Jul-15 00:32N 35°36' E 139°46'0 0.0
2016-Jul-14 23:32N 35°36' E 139°46'0 0.0
2016-Jul-14 22:29N 35°36' E 139°46'0 0.0
2016-Jul-14 21:32N 35°36' E 139°46'0 0.0
2016-Jul-14 20:32N 35°36' E 139°46'0 0.0
2016-Jul-14 19:32N 35°36' E 139°46'0 0.0
2016-Jul-14 18:32N 35°36' E 139°46'0 0.0
2016-Jul-14 17:32N 35°36' E 139°46'0 0.0
2016-Jul-14 16:32N 35°36' E 139°46'0 0.0
2016-Jul-14 15:32N 35°36' E 139°46'0 0.0
2016-Jul-14 14:32N 35°36' E 139°46'0 0.0
2016-Jul-14 13:32N 35°36' E 139°46'0 0.0
2016-Jul-14 12:32N 35°36' E 139°46'  

Dump ship's entire track history